Time;durP1;ratioP1;P1;durP2;ratioP2;P2;SDS_P1;SDS_P2;PMS_P1;PMS_P2;Temp;Humidity;BMP_temperature;BMP_pressure;BME280_temperature;BME280_humidity;BME280_pressure;Samples;Min_cycle;Max_cycle;Signal;HPM_P1;HPM_P2
2022/07/09 00:00:02;;;;;;;4.18;1.88;;;;;;;;;;5029503;28;20057;-58
2022/07/09 00:02:28;;;;;;;7.13;2.00;;;;;;;;;;5025968;28;20053;-59
2022/07/09 00:04:54;;;;;;;7.13;2.03;;;;;;;;;;5028482;28;20040;-59
2022/07/09 00:07:20;;;;;;;8.18;1.65;;;;;;;;;;5034038;28;20034;-58
2022/07/09 00:09:46;;;;;;;2.45;1.70;;;;;;;;;;5032116;28;20026;-59
2022/07/09 00:12:12;;;;;;;5.95;1.88;;;;;;;;;;5033903;28;20037;-59
2022/07/09 00:14:38;;;;;;;6.28;2.17;;;;;;;;;;5034826;28;20059;-58
2022/07/09 00:17:04;;;;;;;4.10;1.52;;;;;;;;;;5034186;28;20033;-57
2022/07/09 00:19:30;;;;;;;5.57;1.55;;;;;;;;;;5033063;28;20037;-57
2022/07/09 00:21:56;;;;;;;3.38;1.67;;;;;;;;;;5032728;28;20028;-58
2022/07/09 00:24:22;;;;;;;4.80;1.80;;;;;;;;;;5034483;28;20428;-56
2022/07/09 00:26:48;;;;;;;3.08;1.70;;;;;;;;;;5031469;28;20075;-55
2022/07/09 00:29:14;;;;;;;4.40;2.00;;;;;;;;;;5034090;28;20392;-58
2022/07/09 00:31:40;;;;;;;5.45;1.98;;;;;;;;;;5046005;28;20026;-59
2022/07/09 00:34:06;;;;;;;3.78;1.55;;;;;;;;;;5037999;28;20401;-59
2022/07/09 00:36:32;;;;;;;4.00;1.75;;;;;;;;;;5028876;28;20037;-58
2022/07/09 00:38:58;;;;;;;6.53;2.03;;;;;;;;;;5034381;28;20372;-59
2022/07/09 00:41:24;;;;;;;3.47;1.77;;;;;;;;;;5032320;28;20017;-58
2022/07/09 00:43:50;;;;;;;5.10;2.10;;;;;;;;;;5034125;28;20025;-57
2022/07/09 00:46:17;;;;;;;4.07;1.83;;;;;;;;;;5032654;28;20037;-59
2022/07/09 00:48:43;;;;;;;7.32;2.15;;;;;;;;;;5032992;28;20040;-59
2022/07/09 00:51:10;;;;;;;5.63;1.92;;;;;;;;;;5031843;28;20655;-58
2022/07/09 00:53:36;;;;;;;3.85;1.65;;;;;;;;;;5031899;28;20032;-59
2022/07/09 00:56:02;;;;;;;4.25;2.00;;;;;;;;;;5031366;28;20030;-58
2022/07/09 00:58:29;;;;;;;3.85;1.83;;;;;;;;;;5030716;28;20504;-58
2022/07/09 01:00:55;;;;;;;5.22;2.53;;;;;;;;;;5032961;28;20029;-56
2022/07/09 01:03:21;;;;;;;5.80;2.55;;;;;;;;;;5032727;28;20037;-57
2022/07/09 01:05:47;;;;;;;3.65;1.85;;;;;;;;;;5032826;28;20452;-56
2022/07/09 01:08:13;;;;;;;6.07;2.00;;;;;;;;;;5030826;28;20033;-57
2022/07/09 01:10:40;;;;;;;7.63;1.90;;;;;;;;;;5022327;28;20017;-57
2022/07/09 01:13:06;;;;;;;5.15;1.85;;;;;;;;;;5032105;28;20087;-56
2022/07/09 01:15:32;;;;;;;5.63;1.95;;;;;;;;;;5031858;28;21300;-56
2022/07/09 01:17:58;;;;;;;5.60;2.45;;;;;;;;;;5032866;28;20030;-57
2022/07/09 01:20:25;;;;;;;3.88;1.95;;;;;;;;;;5032321;28;20112;-57
2022/07/09 01:22:52;;;;;;;4.82;2.13;;;;;;;;;;5032127;28;20040;-57
2022/07/09 01:25:18;;;;;;;5.28;1.98;;;;;;;;;;5032122;28;20030;-56
2022/07/09 01:27:45;;;;;;;5.05;1.98;;;;;;;;;;5031625;28;20131;-57
2022/07/09 01:30:11;;;;;;;7.15;2.10;;;;;;;;;;5031847;28;20080;-56
2022/07/09 01:32:37;;;;;;;7.60;2.13;;;;;;;;;;5033323;28;20021;-55
2022/07/09 01:35:03;;;;;;;6.38;1.90;;;;;;;;;;5031274;28;20069;-57
2022/07/09 01:37:29;;;;;;;5.70;2.05;;;;;;;;;;5031996;28;20452;-56
2022/07/09 01:39:55;;;;;;;3.75;1.85;;;;;;;;;;5031877;28;20025;-56
2022/07/09 01:42:21;;;;;;;9.35;2.47;;;;;;;;;;5031018;28;20029;-54
2022/07/09 01:44:48;;;;;;;4.43;2.40;;;;;;;;;;5032283;28;20038;-55
2022/07/09 01:47:14;;;;;;;5.65;2.42;;;;;;;;;;5032055;28;20527;-56
2022/07/09 01:49:41;;;;;;;4.88;2.53;;;;;;;;;;5030503;28;20551;-55
2022/07/09 01:52:07;;;;;;;5.63;2.13;;;;;;;;;;5031368;28;20084;-55
2022/07/09 01:54:33;;;;;;;8.00;2.30;;;;;;;;;;5013773;28;20041;-56
2022/07/09 01:56:59;;;;;;;3.80;2.00;;;;;;;;;;5031736;28;20044;-56
2022/07/09 01:59:25;;;;;;;8.73;2.45;;;;;;;;;;5024754;28;20021;-56
2022/07/09 02:01:51;;;;;;;5.32;2.13;;;;;;;;;;5030329;28;20064;-57
2022/07/09 02:04:17;;;;;;;6.68;2.83;;;;;;;;;;5029010;28;20037;-56
2022/07/09 02:06:43;;;;;;;9.57;3.35;;;;;;;;;;5021876;28;20033;-55
2022/07/09 02:09:09;;;;;;;11.30;3.25;;;;;;;;;;5029905;28;20424;-56
2022/07/09 02:11:35;;;;;;;8.13;2.70;;;;;;;;;;5029406;28;20018;-55
2022/07/09 02:14:01;;;;;;;7.85;3.00;;;;;;;;;;5028562;28;20033;-56
2022/07/09 02:16:27;;;;;;;6.35;2.58;;;;;;;;;;5031286;28;20033;-55
2022/07/09 02:18:53;;;;;;;7.93;2.80;;;;;;;;;;5027671;28;20088;-54
2022/07/09 02:21:19;;;;;;;10.32;3.17;;;;;;;;;;5030595;28;20033;-57
2022/07/09 02:23:45;;;;;;;11.30;3.08;;;;;;;;;;5028981;28;20048;-57
2022/07/09 02:26:11;;;;;;;11.75;3.42;;;;;;;;;;5038425;28;20449;-57
2022/07/09 02:28:37;;;;;;;10.93;3.65;;;;;;;;;;5014544;28;20065;-56
2022/07/09 02:31:03;;;;;;;11.52;3.60;;;;;;;;;;5011998;28;20026;-57
2022/07/09 02:33:31;;;;;;;7.82;3.58;;;;;;;;;;5011593;28;20085;-56
2022/07/09 02:35:57;;;;;;;12.45;3.92;;;;;;;;;;5009640;28;20041;-56
2022/07/09 02:38:23;;;;;;;8.13;3.38;;;;;;;;;;5012024;28;20026;-57
2022/07/09 02:40:49;;;;;;;7.55;3.30;;;;;;;;;;5009716;28;20173;-57
2022/07/09 02:43:15;;;;;;;9.80;3.95;;;;;;;;;;5011335;28;20651;-57
2022/07/09 02:45:41;;;;;;;12.93;4.18;;;;;;;;;;5009873;28;20028;-57
2022/07/09 02:48:07;;;;;;;6.82;3.67;;;;;;;;;;5010267;28;20034;-57
2022/07/09 02:50:33;;;;;;;11.00;3.95;;;;;;;;;;5010751;28;20033;-57
2022/07/09 02:53:00;;;;;;;7.07;4.05;;;;;;;;;;5011374;28;20034;-56
2022/07/09 02:55:26;;;;;;;9.23;3.60;;;;;;;;;;5010383;28;20033;-56
2022/07/09 02:57:52;;;;;;;8.02;3.90;;;;;;;;;;5009098;28;20038;-55
2022/07/09 03:00:18;;;;;;;9.20;3.70;;;;;;;;;;5010197;28;20021;-57
2022/07/09 03:02:44;;;;;;;7.13;3.50;;;;;;;;;;5013677;28;20034;-56
2022/07/09 03:05:10;;;;;;;8.25;3.58;;;;;;;;;;5009524;28;20033;-57
2022/07/09 03:07:36;;;;;;;6.05;4.03;;;;;;;;;;5009787;28;20083;-56
2022/07/09 03:10:02;;;;;;;6.97;3.35;;;;;;;;;;5009674;28;20441;-55
2022/07/09 03:12:28;;;;;;;14.07;4.78;;;;;;;;;;5011016;28;20109;-56
2022/07/09 03:14:53;;;;;;;9.82;3.47;;;;;;;;;;5010023;28;20033;-55
2022/07/09 03:17:20;;;;;;;8.65;4.07;;;;;;;;;;5009419;28;20046;-56
2022/07/09 03:19:46;;;;;;;8.65;3.58;;;;;;;;;;5009503;28;20045;-56
2022/07/09 03:22:12;;;;;;;12.23;4.07;;;;;;;;;;5010593;28;20041;-57
2022/07/09 03:24:38;;;;;;;8.45;3.10;;;;;;;;;;5010600;28;20499;-55
2022/07/09 03:27:04;;;;;;;8.40;2.97;;;;;;;;;;5013464;28;20042;-56
2022/07/09 03:29:30;;;;;;;7.82;2.88;;;;;;;;;;5029818;28;20056;-56
2022/07/09 03:31:56;;;;;;;6.35;2.70;;;;;;;;;;5028551;28;20270;-54
2022/07/09 03:34:22;;;;;;;7.47;3.28;;;;;;;;;;5029637;28;20033;-57
2022/07/09 03:36:49;;;;;;;6.00;3.10;;;;;;;;;;5030107;28;20028;-56
2022/07/09 03:39:15;;;;;;;8.05;3.08;;;;;;;;;;5029208;28;20083;-54
2022/07/09 03:41:41;;;;;;;8.93;2.83;;;;;;;;;;5030139;28;20018;-55
2022/07/09 03:44:07;;;;;;;6.30;2.85;;;;;;;;;;5043433;28;20499;-55
2022/07/09 03:46:33;;;;;;;11.38;3.20;;;;;;;;;;5028838;28;20033;-55
2022/07/09 03:48:59;;;;;;;4.63;2.42;;;;;;;;;;5029100;28;20041;-57
2022/07/09 03:51:25;;;;;;;5.95;2.78;;;;;;;;;;5028537;28;20465;-55
2022/07/09 03:53:51;;;;;;;6.70;2.60;;;;;;;;;;5029953;28;20021;-57
2022/07/09 03:56:19;;;;;;;7.82;2.67;;;;;;;;;;5029811;28;20038;-57
2022/07/09 03:58:45;;;;;;;10.85;2.63;;;;;;;;;;5029340;28;20049;-57
2022/07/09 04:01:11;;;;;;;7.40;2.80;;;;;;;;;;5027325;28;20468;-56
2022/07/09 04:03:37;;;;;;;8.63;2.47;;;;;;;;;;5036390;28;20036;-57
2022/07/09 04:06:04;;;;;;;7.15;2.53;;;;;;;;;;5025995;28;20029;-56
2022/07/09 04:08:29;;;;;;;8.43;3.13;;;;;;;;;;5030790;28;20555;-56
2022/07/09 04:10:55;;;;;;;5.20;2.83;;;;;;;;;;5028701;28;20108;-57
2022/07/09 04:13:21;;;;;;;10.43;4.10;;;;;;;;;;5043935;28;20543;-56
2022/07/09 04:15:47;;;;;;;6.38;2.65;;;;;;;;;;5029450;28;20032;-57
2022/07/09 04:18:16;;;;;;;7.53;2.45;;;;;;;;;;5028808;28;20088;-56
2022/07/09 04:20:42;;;;;;;6.07;2.38;;;;;;;;;;5027027;28;20079;-57
2022/07/09 04:23:08;;;;;;;5.68;2.35;;;;;;;;;;5028311;28;20044;-57
2022/07/09 04:25:34;;;;;;;4.57;2.75;;;;;;;;;;5029922;28;20554;-57
2022/07/09 04:28:00;;;;;;;5.90;2.28;;;;;;;;;;5028025;28;20046;-57
2022/07/09 04:30:27;;;;;;;8.75;2.83;;;;;;;;;;5029421;28;20021;-58
2022/07/09 04:32:53;;;;;;;5.68;2.42;;;;;;;;;;5028876;28;20104;-57
2022/07/09 04:35:19;;;;;;;6.63;2.50;;;;;;;;;;5028095;28;20042;-56
2022/07/09 04:37:45;;;;;;;4.28;2.20;;;;;;;;;;5028191;28;20083;-55
2022/07/09 04:40:11;;;;;;;4.88;2.63;;;;;;;;;;5028527;28;20037;-54
2022/07/09 04:42:37;;;;;;;6.07;2.53;;;;;;;;;;5032281;28;20032;-57
2022/07/09 04:45:04;;;;;;;5.32;2.55;;;;;;;;;;5032156;28;20037;-56
2022/07/09 04:47:30;;;;;;;6.38;2.60;;;;;;;;;;5032875;28;20112;-55
2022/07/09 04:49:56;;;;;;;8.68;2.50;;;;;;;;;;5033055;28;20572;-57
2022/07/09 04:52:26;;;;;;;7.80;2.45;;;;;;;;;;5032910;28;20040;-55
2022/07/09 04:54:52;;;;;;;5.65;1.90;;;;;;;;;;5029958;28;20040;-55
2022/07/09 04:57:18;;;;;;;7.45;2.80;;;;;;;;;;5030138;28;20056;-56
2022/07/09 04:59:44;;;;;;;7.65;2.58;;;;;;;;;;5031703;28;20033;-56
2022/07/09 05:02:10;;;;;;;6.00;2.45;;;;;;;;;;5032917;28;20104;-57
2022/07/09 05:04:36;;;;;;;8.15;2.83;;;;;;;;;;5031516;28;20048;-57
2022/07/09 05:07:02;;;;;;;5.80;2.60;;;;;;;;;;5033121;28;20033;-57
2022/07/09 05:09:29;;;;;;;9.48;3.00;;;;;;;;;;5030595;28;20033;-56
2022/07/09 05:11:55;;;;;;;7.50;2.67;;;;;;;;;;5032947;28;20416;-56
2022/07/09 05:14:21;;;;;;;7.60;2.80;;;;;;;;;;5032373;28;20064;-57
2022/07/09 05:16:47;;;;;;;7.15;2.67;;;;;;;;;;5031150;28;20045;-56
2022/07/09 05:19:13;;;;;;;9.50;2.80;;;;;;;;;;5015022;28;20715;-57
2022/07/09 05:21:40;;;;;;;9.25;3.08;;;;;;;;;;5033054;28;20600;-57
2022/07/09 05:24:07;;;;;;;6.47;2.40;;;;;;;;;;5032161;28;20026;-56
2022/07/09 05:26:33;;;;;;;9.77;3.08;;;;;;;;;;5031764;28;20025;-57
2022/07/09 05:28:59;;;;;;;7.78;2.80;;;;;;;;;;5032206;28;20049;-56
2022/07/09 05:31:25;;;;;;;8.63;2.97;;;;;;;;;;5029426;28;20109;-56
2022/07/09 05:33:51;;;;;;;7.88;3.17;;;;;;;;;;5030261;28;20447;-57
2022/07/09 05:36:18;;;;;;;8.45;3.80;;;;;;;;;;5031890;28;20449;-57
2022/07/09 05:38:45;;;;;;;5.82;3.30;;;;;;;;;;5032812;28;20492;-57
2022/07/09 05:41:11;;;;;;;6.32;3.17;;;;;;;;;;5031397;28;20120;-56
2022/07/09 05:43:37;;;;;;;7.93;3.10;;;;;;;;;;5032570;28;20100;-56
2022/07/09 05:46:03;;;;;;;4.30;2.58;;;;;;;;;;5023430;28;20392;-57
2022/07/09 05:48:29;;;;;;;7.60;3.72;;;;;;;;;;5033162;28;20033;-57
2022/07/09 05:50:55;;;;;;;9.45;3.80;;;;;;;;;;5030462;28;20024;-57
2022/07/09 05:53:21;;;;;;;9.35;3.45;;;;;;;;;;5030359;28;20040;-56
2022/07/09 05:55:47;;;;;;;7.22;2.88;;;;;;;;;;5031077;28;20029;-56
2022/07/09 05:58:13;;;;;;;7.70;2.63;;;;;;;;;;5027585;28;20029;-57
2022/07/09 06:00:39;;;;;;;4.55;2.17;;;;;;;;;;5031011;28;20104;-55
2022/07/09 06:03:05;;;;;;;7.63;2.70;;;;;;;;;;5028927;28;20033;-57
2022/07/09 06:05:31;;;;;;;12.43;2.63;;;;;;;;;;5030765;28;20488;-57
2022/07/09 06:07:57;;;;;;;6.68;2.28;;;;;;;;;;5014771;28;20468;-57
2022/07/09 06:10:23;;;;;;;6.25;2.67;;;;;;;;;;5030712;28;20037;-56
2022/07/09 06:12:49;;;;;;;5.63;2.60;;;;;;;;;;5025193;28;20025;-57
2022/07/09 06:15:15;;;;;;;6.47;2.55;;;;;;;;;;5029038;28;20030;-56
2022/07/09 06:17:41;;;;;;;5.13;2.42;;;;;;;;;;5030635;28;20033;-56
2022/07/09 06:20:07;;;;;;;6.15;2.38;;;;;;;;;;5028987;28;20037;-55
2022/07/09 06:22:33;;;;;;;4.85;2.28;;;;;;;;;;5029329;28;20034;-57
2022/07/09 06:24:59;;;;;;;9.70;2.80;;;;;;;;;;5029088;28;20025;-55
2022/07/09 06:27:25;;;;;;;4.93;2.30;;;;;;;;;;5025439;28;20413;-55
2022/07/09 06:29:51;;;;;;;5.65;2.45;;;;;;;;;;5025578;28;20239;-56
2022/07/09 06:32:17;;;;;;;3.05;1.98;;;;;;;;;;5027221;28;20104;-55
2022/07/09 06:34:43;;;;;;;9.38;2.65;;;;;;;;;;5030773;28;20029;-57
2022/07/09 06:37:09;;;;;;;8.32;2.53;;;;;;;;;;5028542;28;20124;-57
2022/07/09 06:39:44;;;;;;;4.28;2.50;;;;;;;;;;5026426;28;20040;-56
2022/07/09 06:42:10;;;;;;;5.18;2.17;;;;;;;;;;5025583;28;20485;-57
2022/07/09 06:44:36;;;;;;;6.00;2.25;;;;;;;;;;5031648;28;20377;-57
2022/07/09 06:47:03;;;;;;;10.50;2.15;;;;;;;;;;5029867;28;20381;-57
2022/07/09 06:49:29;;;;;;;7.95;1.88;;;;;;;;;;5030304;28;20033;-57
2022/07/09 06:51:55;;;;;;;5.60;2.22;;;;;;;;;;5024363;28;20021;-57
2022/07/09 06:54:21;;;;;;;6.68;2.10;;;;;;;;;;5029581;28;20446;-56
2022/07/09 06:56:47;;;;;;;5.55;1.70;;;;;;;;;;5030689;28;20104;-56
2022/07/09 06:59:13;;;;;;;4.40;1.95;;;;;;;;;;5031742;28;20022;-57
2022/07/09 07:01:39;;;;;;;4.22;1.73;;;;;;;;;;5030825;28;20017;-57
2022/07/09 07:04:05;;;;;;;4.45;1.70;;;;;;;;;;5031854;28;20036;-57
2022/07/09 07:06:31;;;;;;;5.25;2.00;;;;;;;;;;5029993;28;20036;-57
2022/07/09 07:08:57;;;;;;;2.67;1.77;;;;;;;;;;5027278;28;20404;-56
2022/07/09 07:11:23;;;;;;;5.10;1.92;;;;;;;;;;5027384;28;20056;-57
2022/07/09 07:13:49;;;;;;;7.10;1.85;;;;;;;;;;5024546;28;20079;-57
2022/07/09 07:16:15;;;;;;;4.13;1.45;;;;;;;;;;5028511;28;20036;-57
2022/07/09 07:18:41;;;;;;;6.82;1.80;;;;;;;;;;5030851;28;20029;-56
2022/07/09 07:21:07;;;;;;;3.60;2.30;;;;;;;;;;5029430;28;20045;-55
2022/07/09 07:23:33;;;;;;;5.47;1.75;;;;;;;;;;5030087;28;20029;-57
2022/07/09 07:26:00;;;;;;;5.90;2.00;;;;;;;;;;5044010;28;20052;-56
2022/07/09 07:28:25;;;;;;;3.45;1.38;;;;;;;;;;5026883;28;20069;-56
2022/07/09 07:30:51;;;;;;;5.20;1.75;;;;;;;;;;5029382;28;20447;-57
2022/07/09 07:33:17;;;;;;;4.78;2.33;;;;;;;;;;5031312;28;20439;-56
2022/07/09 07:35:47;;;;;;;5.93;2.67;;;;;;;;;;5028072;28;20104;-56
2022/07/09 07:38:13;;;;;;;5.32;2.05;;;;;;;;;;5029284;28;20114;-57
2022/07/09 07:40:39;;;;;;;11.45;3.10;;;;;;;;;;5029679;28;20033;-56
2022/07/09 07:43:05;;;;;;;6.72;1.88;;;;;;;;;;5030829;28;20025;-57
2022/07/09 07:45:31;;;;;;;11.98;2.13;;;;;;;;;;5024768;28;20041;-56
2022/07/09 07:47:57;;;;;;;8.88;2.42;;;;;;;;;;5028881;28;20038;-56
2022/07/09 07:50:23;;;;;;;7.50;1.92;;;;;;;;;;5029483;28;20030;-57
2022/07/09 07:52:49;;;;;;;4.32;1.88;;;;;;;;;;5042214;28;20070;-57
2022/07/09 07:55:16;;;;;;;6.00;2.00;;;;;;;;;;5026777;28;20384;-56
2022/07/09 07:57:42;;;;;;;4.63;2.10;;;;;;;;;;5010102;28;20021;-57
2022/07/09 08:00:09;;;;;;;4.40;1.98;;;;;;;;;;5026025;28;20049;-56
2022/07/09 08:02:35;;;;;;;7.68;2.08;;;;;;;;;;5031698;28;20046;-56
2022/07/09 08:05:01;;;;;;;3.72;1.92;;;;;;;;;;5029196;28;20032;-56
2022/07/09 08:07:27;;;;;;;4.65;1.83;;;;;;;;;;5021666;28;20028;-57
2022/07/09 08:09:53;;;;;;;5.43;2.13;;;;;;;;;;5030072;28;20875;-57
2022/07/09 08:12:19;;;;;;;8.52;2.92;;;;;;;;;;5027146;28;20103;-56
2022/07/09 08:14:45;;;;;;;3.22;1.98;;;;;;;;;;5028394;28;20533;-57
2022/07/09 08:17:11;;;;;;;5.15;1.95;;;;;;;;;;5029250;28;20053;-57
2022/07/09 08:19:37;;;;;;;5.35;2.50;;;;;;;;;;5025815;28;20025;-57
2022/07/09 08:22:04;;;;;;;6.80;2.42;;;;;;;;;;5032948;28;20262;-56
2022/07/09 08:24:29;;;;;;;5.60;1.73;;;;;;;;;;5032093;28;20033;-56
2022/07/09 08:26:56;;;;;;;9.77;2.50;;;;;;;;;;5029704;28;20069;-56
2022/07/09 08:29:22;;;;;;;7.22;2.47;;;;;;;;;;5028168;28;20022;-57
2022/07/09 08:31:49;;;;;;;7.00;2.25;;;;;;;;;;5024758;28;24276;-54
2022/07/09 08:34:15;;;;;;;5.63;1.95;;;;;;;;;;5032037;28;20021;-56
2022/07/09 08:36:41;;;;;;;7.22;2.38;;;;;;;;;;5032827;28;20025;-54
2022/07/09 08:39:07;;;;;;;5.45;2.15;;;;;;;;;;5029436;28;20025;-57
2022/07/09 08:41:33;;;;;;;6.57;2.92;;;;;;;;;;5031915;28;20420;-57
2022/07/09 08:44:01;;;;;;;5.05;2.03;;;;;;;;;;5031709;28;20025;-58
2022/07/09 08:46:27;;;;;;;6.88;1.95;;;;;;;;;;5031346;28;20038;-57
2022/07/09 08:48:53;;;;;;;6.30;2.15;;;;;;;;;;5028854;28;20025;-56
2022/07/09 08:51:20;;;;;;;8.02;2.13;;;;;;;;;;5029017;28;20473;-56
2022/07/09 08:53:46;;;;;;;4.38;2.03;;;;;;;;;;5031521;28;20409;-57
2022/07/09 08:56:12;;;;;;;6.05;1.90;;;;;;;;;;5027810;28;20033;-56
2022/07/09 08:58:39;;;;;;;6.30;2.08;;;;;;;;;;5027541;28;20072;-57
2022/07/09 09:01:06;;;;;;;7.55;2.08;;;;;;;;;;5031854;28;20052;-56
2022/07/09 09:03:32;;;;;;;6.07;2.47;;;;;;;;;;5027505;28;20067;-56
2022/07/09 09:06:02;;;;;;;9.52;2.20;;;;;;;;;;5030473;28;20037;-55
2022/07/09 09:08:28;;;;;;;5.72;2.38;;;;;;;;;;5032990;28;20040;-57
2022/07/09 09:10:54;;;;;;;8.10;2.47;;;;;;;;;;5031543;28;20014;-57
2022/07/09 09:13:20;;;;;;;6.43;2.55;;;;;;;;;;5031330;28;20091;-56
2022/07/09 09:15:46;;;;;;;6.65;2.40;;;;;;;;;;5031711;28;20469;-56
2022/07/09 09:18:12;;;;;;;5.30;2.20;;;;;;;;;;5029801;28;20041;-57
2022/07/09 09:20:39;;;;;;;6.20;2.20;;;;;;;;;;5026179;28;20029;-58
2022/07/09 09:23:10;;;;;;;6.70;2.13;;;;;;;;;;5032258;28;20058;-56
2022/07/09 09:25:36;;;;;;;4.93;2.22;;;;;;;;;;5033656;28;20025;-58
2022/07/09 09:28:02;;;;;;;6.10;2.40;;;;;;;;;;5029076;28;20050;-57
2022/07/09 09:30:30;;;;;;;4.70;2.10;;;;;;;;;;5024949;28;20029;-56
2022/07/09 09:33:00;;;;;;;6.53;2.35;;;;;;;;;;5031186;28;20080;-57
2022/07/09 09:35:27;;;;;;;5.22;2.10;;;;;;;;;;5041694;28;20021;-57
2022/07/09 09:37:53;;;;;;;5.00;2.13;;;;;;;;;;5031690;28;20030;-57
2022/07/09 09:40:19;;;;;;;5.90;2.28;;;;;;;;;;5032963;28;20392;-57
2022/07/09 09:42:46;;;;;;;4.63;2.03;;;;;;;;;;5029470;28;20037;-57
2022/07/09 09:45:16;;;;;;;5.43;2.00;;;;;;;;;;5013531;28;20037;-58
2022/07/09 09:47:52;;;;;;;7.00;2.55;;;;;;;;;;5021041;28;20388;-58
2022/07/09 09:50:21;;;;;;;6.00;2.15;;;;;;;;;;5020931;28;20069;-57
2022/07/09 09:52:48;;;;;;;5.65;1.70;;;;;;;;;;5034487;28;20031;-57
2022/07/09 09:55:15;;;;;;;5.80;2.00;;;;;;;;;;5032492;28;20040;-56
2022/07/09 09:57:41;;;;;;;4.80;1.83;;;;;;;;;;5030445;28;20029;-58
2022/07/09 10:00:08;;;;;;;7.65;1.95;;;;;;;;;;5032430;28;20389;-58
2022/07/09 10:02:35;;;;;;;7.40;2.25;;;;;;;;;;5035625;28;20033;-57
2022/07/09 10:05:01;;;;;;;7.88;2.25;;;;;;;;;;5030984;28;20025;-58
2022/07/09 10:07:29;;;;;;;4.18;1.90;;;;;;;;;;5030422;28;20036;-57
2022/07/09 10:09:56;;;;;;;4.53;1.88;;;;;;;;;;5031174;28;20523;-57
2022/07/09 10:12:33;;;;;;;5.13;1.92;;;;;;;;;;5032125;28;20102;-57
2022/07/09 10:14:59;;;;;;;4.60;1.90;;;;;;;;;;5029201;28;20029;-57
2022/07/09 10:17:26;;;;;;;6.80;1.85;;;;;;;;;;5025333;28;20037;-57
2022/07/09 10:19:56;;;;;;;5.72;1.90;;;;;;;;;;5029077;28;20108;-57
2022/07/09 10:22:42;;;;;;;5.45;1.65;;;;;;;;;;5029133;28;20129;-58
2022/07/09 10:25:09;;;;;;;6.32;1.80;;;;;;;;;;5028632;28;20523;-57
2022/07/09 10:28:01;;;;;;;4.53;1.80;;;;;;;;;;5028858;28;21814;-56
2022/07/09 10:30:31;;;;;;;6.05;1.75;;;;;;;;;;5022447;28;20049;-58
2022/07/09 10:33:03;;;;;;;6.43;2.10;;;;;;;;;;5030360;28;20026;-57
2022/07/09 10:35:29;;;;;;;5.85;1.40;;;;;;;;;;5025276;28;20537;-58
2022/07/09 10:37:55;;;;;;;4.00;1.20;;;;;;;;;;5030175;28;20599;-57
2022/07/09 10:40:22;;;;;;;3.05;1.40;;;;;;;;;;5029350;28;20037;-57
2022/07/09 10:42:58;;;;;;;4.63;1.75;;;;;;;;;;5031733;28;20029;-58
2022/07/09 10:45:26;;;;;;;3.90;1.25;;;;;;;;;;5025875;28;20116;-57
2022/07/09 10:47:53;;;;;;;3.75;1.50;;;;;;;;;;5029243;28;20025;-58
2022/07/09 10:50:19;;;;;;;2.05;1.15;;;;;;;;;;5030032;28;20108;-57
2022/07/09 10:52:47;;;;;;;4.32;1.25;;;;;;;;;;5023306;28;20029;-58
2022/07/09 10:55:15;;;;;;;5.13;1.60;;;;;;;;;;5024603;28;20022;-58
2022/07/09 10:57:44;;;;;;;5.72;1.52;;;;;;;;;;5028110;28;20476;-56
2022/07/09 11:00:14;;;;;;;1.58;1.20;;;;;;;;;;5033029;28;20505;-58
2022/07/09 11:02:51;;;;;;;4.10;1.30;;;;;;;;;;5028067;28;20041;-57
2022/07/09 11:05:17;;;;;;;2.70;0.85;;;;;;;;;;5027254;28;20040;-58
2022/07/09 11:07:42;;;;;;;1.98;0.93;;;;;;;;;;5024924;28;20464;-57
2022/07/09 11:10:19;;;;;;;1.50;0.80;;;;;;;;;;5028216;28;20397;-57
2022/07/09 11:12:48;;;;;;;3.05;1.33;;;;;;;;;;5029695;28;20022;-57
2022/07/09 11:15:20;;;;;;;3.35;1.20;;;;;;;;;;5028620;28;20037;-56
2022/07/09 11:17:59;;;;;;;3.13;1.17;;;;;;;;;;5027678;28;20519;-57
2022/07/09 11:20:26;;;;;;;2.20;0.95;;;;;;;;;;5029216;28;20272;-58
2022/07/09 11:22:52;;;;;;;4.55;1.17;;;;;;;;;;5019521;28;20509;-56
2022/07/09 11:25:18;;;;;;;3.78;1.23;;;;;;;;;;5025479;28;20396;-57
2022/07/09 11:27:44;;;;;;;4.32;1.27;;;;;;;;;;5028631;28;20045;-58
2022/07/09 11:30:17;;;;;;;7.22;1.35;;;;;;;;;;5030195;28;20025;-59
2022/07/09 11:32:43;;;;;;;3.75;1.55;;;;;;;;;;5029130;28;20063;-56
2022/07/09 11:35:10;;;;;;;2.28;1.10;;;;;;;;;;5027969;28;20026;-58
2022/07/09 11:37:36;;;;;;;1.55;0.65;;;;;;;;;;5028659;28;20041;-58
2022/07/09 11:40:02;;;;;;;1.70;0.95;;;;;;;;;;5019117;28;20089;-56
2022/07/09 11:42:28;;;;;;;3.47;1.55;;;;;;;;;;5028757;28;20040;-57
2022/07/09 11:44:55;;;;;;;3.17;1.33;;;;;;;;;;5030834;28;20041;-58
2022/07/09 11:47:31;;;;;;;1.83;0.55;;;;;;;;;;5020223;28;20472;-59
2022/07/09 11:50:05;;;;;;;6.97;0.73;;;;;;;;;;5017770;28;20063;-58
2022/07/09 11:52:30;;;;;;;3.53;1.02;;;;;;;;;;5030609;28;20050;-58
2022/07/09 11:55:01;;;;;;;2.15;0.77;;;;;;;;;;5030910;28;20026;-57
2022/07/09 11:57:28;;;;;;;3.70;0.68;;;;;;;;;;5033012;28;20099;-57
2022/07/09 11:59:54;;;;;;;2.17;0.80;;;;;;;;;;5038523;28;20036;-56
2022/07/09 12:02:39;;;;;;;4.05;0.82;;;;;;;;;;5030789;28;20436;-57
2022/07/09 12:05:06;;;;;;;2.20;0.77;;;;;;;;;;5030696;28;20029;-57
2022/07/09 12:07:34;;;;;;;3.05;0.80;;;;;;;;;;5030331;28;20200;-57
2022/07/09 12:10:01;;;;;;;1.90;0.75;;;;;;;;;;5020304;28;20036;-57
2022/07/09 12:12:27;;;;;;;1.48;0.93;;;;;;;;;;5030634;28;20034;-58
2022/07/09 12:14:54;;;;;;;3.40;0.73;;;;;;;;;;5030991;28;20740;-58
2022/07/09 12:17:23;;;;;;;4.45;0.77;;;;;;;;;;5028648;28;20423;-58
2022/07/09 12:19:49;;;;;;;1.98;0.75;;;;;;;;;;5027090;28;20116;-58
2022/07/09 12:22:15;;;;;;;2.72;0.98;;;;;;;;;;5013296;28;20030;-57
2022/07/09 12:24:41;;;;;;;1.50;0.70;;;;;;;;;;5030195;28;20057;-59
2022/07/09 12:27:07;;;;;;;2.08;0.80;;;;;;;;;;5030813;28;20497;-58
2022/07/09 12:29:33;;;;;;;1.83;1.05;;;;;;;;;;5043916;28;20032;-58
2022/07/09 12:31:59;;;;;;;1.67;0.77;;;;;;;;;;5030441;28;20025;-58
2022/07/09 12:34:25;;;;;;;3.92;0.70;;;;;;;;;;5028773;28;20029;-59
2022/07/09 12:36:51;;;;;;;2.97;1.00;;;;;;;;;;5030776;28;20438;-56
2022/07/09 12:39:17;;;;;;;6.68;1.58;;;;;;;;;;5029667;28;20068;-58
2022/07/09 12:41:43;;;;;;;4.72;1.20;;;;;;;;;;5012527;28;20435;-58
2022/07/09 12:44:09;;;;;;;2.45;1.27;;;;;;;;;;5030506;28;20363;-58
2022/07/09 12:46:36;;;;;;;5.47;2.15;;;;;;;;;;5026213;28;20122;-57
2022/07/09 12:49:02;;;;;;;2.97;1.35;;;;;;;;;;5025418;28;20061;-58
2022/07/09 12:51:28;;;;;;;4.70;1.45;;;;;;;;;;5028681;28;20127;-58
2022/07/09 12:53:54;;;;;;;2.45;1.38;;;;;;;;;;5029902;28;20092;-58
2022/07/09 12:56:20;;;;;;;4.72;2.05;;;;;;;;;;5030313;28;20025;-57
2022/07/09 12:58:46;;;;;;;2.53;1.30;;;;;;;;;;5037445;28;20056;-58
2022/07/09 13:01:12;;;;;;;1.90;1.10;;;;;;;;;;5029824;28;20057;-57
2022/07/09 13:03:38;;;;;;;2.03;1.08;;;;;;;;;;5021094;28;20038;-58
2022/07/09 13:06:04;;;;;;;2.10;1.20;;;;;;;;;;5031420;28;20105;-56
2022/07/09 13:08:30;;;;;;;3.70;1.65;;;;;;;;;;5032137;28;20532;-58
2022/07/09 13:10:56;;;;;;;2.25;1.20;;;;;;;;;;5033241;28;20501;-57
2022/07/09 13:13:22;;;;;;;3.15;1.40;;;;;;;;;;5032086;28;20029;-55
2022/07/09 13:15:48;;;;;;;2.40;1.20;;;;;;;;;;5033790;28;20041;-55
2022/07/09 13:18:15;;;;;;;2.33;1.52;;;;;;;;;;5033657;28;20057;-57
2022/07/09 13:20:41;;;;;;;2.50;1.27;;;;;;;;;;5033131;28;20033;-57
2022/07/09 13:23:07;;;;;;;2.65;1.38;;;;;;;;;;5032845;28;20386;-55
2022/07/09 13:25:33;;;;;;;3.50;1.40;;;;;;;;;;5033223;28;20080;-57
2022/07/09 13:27:59;;;;;;;2.65;1.42;;;;;;;;;;5032877;28;20049;-58
2022/07/09 13:30:25;;;;;;;3.10;1.17;;;;;;;;;;5031326;28;20096;-58
2022/07/09 13:32:51;;;;;;;2.10;0.90;;;;;;;;;;5047541;28;20048;-56
2022/07/09 13:35:17;;;;;;;2.08;1.20;;;;;;;;;;5045127;28;20115;-56
2022/07/09 13:37:43;;;;;;;4.18;1.42;;;;;;;;;;5032682;28;20113;-58
2022/07/09 13:40:09;;;;;;;3.47;1.60;;;;;;;;;;5032744;28;20458;-58
2022/07/09 13:42:36;;;;;;;3.38;1.33;;;;;;;;;;5033102;28;20029;-57
2022/07/09 13:45:02;;;;;;;3.78;1.45;;;;;;;;;;5045011;28;20053;-58
2022/07/09 13:47:28;;;;;;;1.48;0.95;;;;;;;;;;5031769;28;20470;-57
2022/07/09 13:49:56;;;;;;;2.28;1.10;;;;;;;;;;5032629;28;20029;-57
2022/07/09 13:52:22;;;;;;;2.55;1.13;;;;;;;;;;5014998;28;20029;-57
2022/07/09 13:54:47;;;;;;;3.00;1.50;;;;;;;;;;5032662;28;20474;-57
2022/07/09 13:57:13;;;;;;;3.15;1.20;;;;;;;;;;5032847;28;20389;-57
2022/07/09 13:59:39;;;;;;;2.47;1.13;;;;;;;;;;5032674;28;20461;-56
2022/07/09 14:02:06;;;;;;;2.45;0.80;;;;;;;;;;5032767;28;20104;-57
2022/07/09 14:04:32;;;;;;;1.55;0.70;;;;;;;;;;5030379;28;20029;-57
2022/07/09 14:06:58;;;;;;;1.23;0.90;;;;;;;;;;5032685;28;20037;-58
2022/07/09 14:09:24;;;;;;;3.00;0.82;;;;;;;;;;5032430;28;20053;-57
2022/07/09 14:11:50;;;;;;;1.60;0.60;;;;;;;;;;5026785;28;20030;-56
2022/07/09 14:14:15;;;;;;;1.70;0.57;;;;;;;;;;5031905;28;20032;-57
2022/07/09 14:16:41;;;;;;;1.73;0.95;;;;;;;;;;5014061;28;20017;-57
2022/07/09 14:19:08;;;;;;;2.63;0.88;;;;;;;;;;5032344;28;20114;-57
2022/07/09 14:21:34;;;;;;;1.50;0.70;;;;;;;;;;5030772;28;20061;-56
2022/07/09 14:23:59;;;;;;;2.00;0.70;;;;;;;;;;5032235;28;20065;-55
2022/07/09 14:26:25;;;;;;;3.25;1.20;;;;;;;;;;5032018;28;20026;-57
2022/07/09 14:28:52;;;;;;;1.10;0.82;;;;;;;;;;5032151;28;20120;-57
2022/07/09 14:31:18;;;;;;;1.77;0.68;;;;;;;;;;5031749;28;20030;-58
2022/07/09 14:33:44;;;;;;;1.40;0.50;;;;;;;;;;5031790;28;20476;-57
2022/07/09 14:36:10;;;;;;;1.35;0.47;;;;;;;;;;5031709;28;20072;-57
2022/07/09 14:38:37;;;;;;;1.15;0.50;;;;;;;;;;5030469;28;20112;-57